Time,TemperatureF,DewpointF,PressureIn,WindDirection,WindDirectionDegrees,WindSpeedMPH,WindSpeedGustMPH,Humidity,HourlyPrecipIn,Conditions,Clouds,dailyrainin,SoftwareType,DateUTC
2013-01-09 00:03:00,32.0,26.0,30.05,SSE,167,2.0,5.0,77,0.00,,,0.00,,2013-01-09 05:03:00,
2013-01-09 00:12:00,32.0,26.0,30.05,SSE,167,2.0,5.0,77,0.00,,,0.00,,2013-01-09 05:12:00,
2013-01-09 00:22:00,32.0,26.0,30.05,SSE,167,2.0,5.0,77,0.00,,,0.00,,2013-01-09 05:22:00,
2013-01-09 00:33:00,32.0,26.0,30.05,SSE,154,0.0,2.0,77,0.00,,,0.00,,2013-01-09 05:33:00,
2013-01-09 00:42:00,32.0,26.0,30.05,SSE,154,0.0,2.0,77,0.00,,,0.00,,2013-01-09 05:42:00,
2013-01-09 00:53:00,32.0,26.0,30.05,SSE,154,0.0,2.0,77,0.00,,,0.00,,2013-01-09 05:53:00,
2013-01-09 01:02:00,32.0,26.0,30.03,SSE,148,0.0,2.0,77,0.00,,,0.00,,2013-01-09 06:02:00,
2013-01-09 01:12:00,32.0,26.0,30.03,SSE,148,0.0,2.0,77,0.00,,,0.00,,2013-01-09 06:12:00,
2013-01-09 01:22:00,32.0,26.0,30.03,SSE,148,0.0,2.0,77,0.00,,,0.00,,2013-01-09 06:22:00,
2013-01-09 01:32:00,32.0,26.0,30.02,SSE,161,0.0,2.0,77,0.00,,,0.00,,2013-01-09 06:32:00,
2013-01-09 01:42:00,32.0,26.0,30.02,SSE,161,0.0,2.0,77,0.00,,,0.00,,2013-01-09 06:42:00,
2013-01-09 01:53:00,32.0,26.0,30.02,SSE,161,0.0,2.0,77,0.00,,,0.00,,2013-01-09 06:53:00,
2013-01-09 02:02:00,34.0,27.0,29.99,SSW,211,1.0,3.0,76,0.00,,,0.00,,2013-01-09 07:02:00,
2013-01-09 02:12:00,34.0,27.0,29.99,SSW,211,1.0,3.0,76,0.00,,,0.00,,2013-01-09 07:12:00,
2013-01-09 02:22:00,34.0,27.0,29.99,SSW,211,1.0,3.0,76,0.00,,,0.00,,2013-01-09 07:22:00,
2013-01-09 02:32:00,35.0,28.0,29.99,South,187,1.0,5.0,76,0.00,,,0.00,,2013-01-09 07:32:00,
2013-01-09 02:42:00,35.0,28.0,29.99,South,187,1.0,5.0,76,0.00,,,0.00,,2013-01-09 07:42:00,
2013-01-09 02:52:00,35.0,28.0,29.99,South,187,1.0,5.0,76,0.00,,,0.00,,2013-01-09 07:52:00,
2013-01-09 03:02:00,36.0,29.0,29.98,SSW,213,2.0,8.0,77,0.00,,,0.00,,2013-01-09 08:02:00,
2013-01-09 03:12:00,36.0,29.0,29.98,SSW,213,2.0,8.0,77,0.00,,,0.00,,2013-01-09 08:12:00,
2013-01-09 03:22:00,36.0,29.0,29.98,SSW,213,2.0,8.0,77,0.00,,,0.00,,2013-01-09 08:22:00,
2013-01-09 03:32:00,37.0,30.0,29.98,South,189,4.0,12.0,77,0.00,,,0.00,,2013-01-09 08:32:00,
2013-01-09 03:42:00,37.0,30.0,29.98,South,189,4.0,12.0,77,0.00,,,0.00,,2013-01-09 08:42:00,
2013-01-09 03:53:00,37.0,30.0,29.98,South,189,4.0,12.0,77,0.00,,,0.00,,2013-01-09 08:53:00,
2013-01-09 04:02:00,38.0,31.0,29.98,SW,219,4.0,16.0,76,0.00,,,0.00,,2013-01-09 09:02:00,
2013-01-09 04:12:00,38.0,31.0,29.98,SW,219,4.0,16.0,76,0.00,,,0.00,,2013-01-09 09:12:00,
2013-01-09 04:22:00,38.0,31.0,29.98,SW,219,4.0,16.0,76,0.00,,,0.00,,2013-01-09 09:22:00,
2013-01-09 04:32:00,38.0,32.0,29.97,SW,223,3.0,7.0,78,0.00,,,0.00,,2013-01-09 09:32:00,
2013-01-09 04:42:00,38.0,32.0,29.97,SW,223,3.0,7.0,78,0.00,,,0.00,,2013-01-09 09:42:00,
2013-01-09 04:53:00,38.0,32.0,29.97,SW,223,3.0,7.0,78,0.00,,,0.00,,2013-01-09 09:53:00,
2013-01-09 05:02:00,38.0,32.0,29.96,SW,226,4.0,9.0,78,0.00,,,0.00,,2013-01-09 10:02:00,
2013-01-09 05:12:00,38.0,32.0,29.96,SW,226,4.0,9.0,78,0.00,,,0.00,,2013-01-09 10:12:00,
2013-01-09 05:22:00,38.0,32.0,29.96,SW,226,4.0,9.0,78,0.00,,,0.00,,2013-01-09 10:22:00,
2013-01-09 05:32:00,39.0,33.0,29.96,SW,225,4.0,12.0,78,0.00,,,0.00,,2013-01-09 10:32:00,
2013-01-09 05:42:00,39.0,33.0,29.96,SW,225,4.0,12.0,78,0.00,,,0.00,,2013-01-09 10:42:00,
2013-01-09 05:52:00,39.0,33.0,29.96,SW,225,4.0,12.0,78,0.00,,,0.00,,2013-01-09 10:52:00,
2013-01-09 06:02:00,40.0,34.0,29.95,SW,216,7.0,20.0,78,0.00,,,0.00,,2013-01-09 11:02:00,
2013-01-09 06:12:00,40.0,34.0,29.95,SW,216,7.0,20.0,78,0.00,,,0.00,,2013-01-09 11:12:00,
2013-01-09 06:22:00,40.0,34.0,29.95,SW,216,7.0,20.0,78,0.00,,,0.00,,2013-01-09 11:22:00,
2013-01-09 06:33:00,40.0,34.0,29.96,SW,226,3.0,15.0,78,0.00,,,0.00,,2013-01-09 11:33:00,
2013-01-09 06:42:00,40.0,34.0,29.96,SW,226,3.0,15.0,78,0.00,,,0.00,,2013-01-09 11:42:00,
2013-01-09 06:53:00,40.0,34.0,29.96,SW,226,3.0,15.0,78,0.00,,,0.00,,2013-01-09 11:53:00,
2013-01-09 07:03:00,40.0,34.0,29.96,West,271,5.0,14.0,78,0.00,,,0.00,,2013-01-09 12:03:00,
2013-01-09 07:12:00,40.0,34.0,29.96,West,271,5.0,14.0,78,0.00,,,0.00,,2013-01-09 12:12:00,
2013-01-09 07:23:00,40.0,34.0,29.96,West,271,5.0,14.0,78,0.00,,,0.00,,2013-01-09 12:23:00,
2013-01-09 07:33:00,40.0,34.0,29.99,West,260,7.0,13.0,78,0.00,,,0.00,,2013-01-09 12:33:00,
2013-01-09 07:43:00,40.0,34.0,29.99,West,260,7.0,13.0,78,0.00,,,0.00,,2013-01-09 12:43:00,
2013-01-09 07:53:00,40.0,34.0,29.99,West,260,7.0,13.0,78,0.00,,,0.00,,2013-01-09 12:53:00,
2013-01-09 08:03:00,40.0,34.0,30.01,West,280,9.0,17.0,78,0.00,,,0.00,,2013-01-09 13:03:00,
2013-01-09 08:12:00,40.0,34.0,30.01,West,280,9.0,17.0,78,0.00,,,0.00,,2013-01-09 13:12:00,
2013-01-09 08:23:00,40.0,34.0,30.01,West,280,9.0,17.0,78,0.00,,,0.00,,2013-01-09 13:23:00,
2013-01-09 08:33:00,39.0,33.0,30.04,West,259,9.0,20.0,78,0.00,,,0.00,,2013-01-09 13:33:00,
2013-01-09 08:43:00,39.0,33.0,30.04,West,259,9.0,20.0,78,0.00,,,0.00,,2013-01-09 13:43:00,
2013-01-09 08:53:00,39.0,33.0,30.04,West,259,9.0,20.0,78,0.00,,,0.00,,2013-01-09 13:53:00,
2013-01-09 09:03:00,39.0,33.0,30.06,WSW,255,7.0,20.0,78,0.00,,,0.00,,2013-01-09 14:03:00,
2013-01-09 09:12:00,39.0,33.0,30.06,WSW,255,7.0,20.0,78,0.00,,,0.00,,2013-01-09 14:12:00,
2013-01-09 09:23:00,39.0,33.0,30.06,WSW,255,7.0,20.0,78,0.00,,,0.00,,2013-01-09 14:23:00,
2013-01-09 09:33:00,38.0,32.0,30.08,SW,225,7.0,13.0,78,0.00,,,0.00,,2013-01-09 14:33:00,
2013-01-09 09:43:00,38.0,32.0,30.08,SW,225,7.0,13.0,78,0.00,,,0.00,,2013-01-09 14:43:00,
2013-01-09 09:53:00,38.0,32.0,30.08,SW,225,7.0,13.0,78,0.00,,,0.00,,2013-01-09 14:53:00,
2013-01-09 10:03:00,38.0,32.0,30.08,WSW,252,5.0,12.0,78,0.00,,,0.00,,2013-01-09 15:03:00,
2013-01-09 10:13:00,38.0,32.0,30.08,WSW,252,5.0,12.0,78,0.00,,,0.00,,2013-01-09 15:13:00,
2013-01-09 10:23:00,38.0,32.0,30.08,WSW,252,5.0,12.0,78,0.00,,,0.00,,2013-01-09 15:23:00,
2013-01-09 10:33:00,39.0,33.0,30.09,WSW,238,6.0,12.0,78,0.00,,,0.00,,2013-01-09 15:33:00,
2013-01-09 10:42:00,39.0,33.0,30.09,WSW,238,6.0,12.0,78,0.00,,,0.00,,2013-01-09 15:42:00,
2013-01-09 10:53:00,39.0,33.0,30.09,WSW,238,6.0,12.0,78,0.00,,,0.00,,2013-01-09 15:53:00,
2013-01-09 11:03:00,40.0,33.0,30.10,SW,232,6.0,12.0,77,0.00,,,0.00,,2013-01-09 16:03:00,
2013-01-09 11:12:00,40.0,33.0,30.10,SW,232,6.0,12.0,77,0.00,,,0.00,,2013-01-09 16:12:00,
2013-01-09 11:23:00,40.0,33.0,30.10,SW,232,6.0,12.0,77,0.00,,,0.00,,2013-01-09 16:23:00,
2013-01-09 11:33:00,41.0,34.0,30.11,WSW,237,7.0,15.0,75,0.00,,,0.00,,2013-01-09 16:33:00,
2013-01-09 11:43:00,41.0,34.0,30.11,WSW,237,7.0,15.0,75,0.00,,,0.00,,2013-01-09 16:43:00,
2013-01-09 11:53:00,41.0,34.0,30.11,WSW,237,7.0,15.0,75,0.00,,,0.00,,2013-01-09 16:53:00,
2013-01-09 12:03:00,41.0,33.0,30.11,WSW,246,10.0,20.0,73,0.00,,,0.00,,2013-01-09 17:03:00,
2013-01-09 12:12:00,41.0,33.0,30.11,WSW,246,10.0,20.0,73,0.00,,,0.00,,2013-01-09 17:12:00,
2013-01-09 12:23:00,41.0,33.0,30.11,WSW,246,10.0,20.0,73,0.00,,,0.00,,2013-01-09 17:23:00,
2013-01-09 12:33:00,42.0,34.0,30.10,WSW,253,6.0,17.0,73,0.00,,,0.00,,2013-01-09 17:33:00,
2013-01-09 12:43:00,42.0,34.0,30.10,WSW,253,6.0,17.0,73,0.00,,,0.00,,2013-01-09 17:43:00,
2013-01-09 12:53:00,42.0,34.0,30.10,WSW,253,6.0,17.0,73,0.00,,,0.00,,2013-01-09 17:53:00,
2013-01-09 13:03:00,42.0,33.0,30.10,WSW,240,10.0,20.0,71,0.00,,,0.00,,2013-01-09 18:03:00,
2013-01-09 13:12:00,42.0,33.0,30.10,WSW,240,10.0,20.0,71,0.00,,,0.00,,2013-01-09 18:12:00,
2013-01-09 13:24:00,42.0,33.0,30.10,WSW,240,10.0,20.0,71,0.00,,,0.00,,2013-01-09 18:24:00,
2013-01-09 13:33:00,43.0,34.0,30.10,WNW,288,12.0,26.0,70,0.00,,,0.00,,2013-01-09 18:33:00,
2013-01-09 13:43:00,43.0,34.0,30.10,WNW,288,12.0,26.0,70,0.00,,,0.00,,2013-01-09 18:43:00,
2013-01-09 13:53:00,43.0,34.0,30.10,WNW,288,12.0,26.0,70,0.00,,,0.00,,2013-01-09 18:53:00,
2013-01-09 14:03:00,43.0,32.0,30.13,WSW,252,14.0,29.0,66,0.00,,,0.00,,2013-01-09 19:03:00,
2013-01-09 14:13:00,43.0,32.0,30.13,WSW,252,14.0,29.0,66,0.00,,,0.00,,2013-01-09 19:13:00,
2013-01-09 14:23:00,43.0,32.0,30.13,WSW,252,14.0,29.0,66,0.00,,,0.00,,2013-01-09 19:23:00,
2013-01-09 14:33:00,43.0,31.0,30.14,WNW,290,12.0,26.0,63,0.00,,,0.00,,2013-01-09 19:33:00,
2013-01-09 14:43:00,43.0,31.0,30.14,WNW,290,12.0,26.0,63,0.00,,,0.00,,2013-01-09 19:43:00,
2013-01-09 14:53:00,43.0,31.0,30.14,WNW,290,12.0,26.0,63,0.00,,,0.00,,2013-01-09 19:53:00,
2013-01-09 15:03:00,43.0,30.0,30.16,West,261,14.0,22.0,60,0.00,,,0.00,,2013-01-09 20:03:00,
2013-01-09 15:12:00,43.0,30.0,30.16,West,261,14.0,22.0,60,0.00,,,0.00,,2013-01-09 20:12:00,
2013-01-09 15:23:00,43.0,30.0,30.16,West,261,14.0,22.0,60,0.00,,,0.00,,2013-01-09 20:23:00,
2013-01-09 15:33:00,43.0,30.0,30.18,WNW,291,10.0,23.0,60,0.00,,,0.00,,2013-01-09 20:33:00,
2013-01-09 15:43:00,43.0,30.0,30.18,WNW,291,10.0,23.0,60,0.00,,,0.00,,2013-01-09 20:43:00,
2013-01-09 15:53:00,43.0,30.0,30.18,WNW,291,10.0,23.0,60,0.00,,,0.00,,2013-01-09 20:53:00,
2013-01-09 16:03:00,43.0,28.0,30.20,WNW,291,13.0,30.0,55,0.00,,,0.00,,2013-01-09 21:03:00,
2013-01-09 16:13:00,43.0,28.0,30.20,WNW,291,13.0,30.0,55,0.00,,,0.00,,2013-01-09 21:13:00,
2013-01-09 16:23:00,43.0,28.0,30.20,WNW,291,13.0,30.0,55,0.00,,,0.00,,2013-01-09 21:23:00,
2013-01-09 16:33:00,42.0,29.0,30.23,WSW,248,7.0,22.0,60,0.00,,,0.00,,2013-01-09 21:33:00,
2013-01-09 16:43:00,42.0,29.0,30.23,WSW,248,7.0,22.0,60,0.00,,,0.00,,2013-01-09 21:43:00,
2013-01-09 16:53:00,42.0,29.0,30.23,WSW,248,7.0,22.0,60,0.00,,,0.00,,2013-01-09 21:53:00,
2013-01-09 17:03:00,41.0,29.0,30.24,WSW,252,7.0,20.0,62,0.00,,,0.00,,2013-01-09 22:03:00,
2013-01-09 17:12:00,41.0,29.0,30.24,WSW,252,7.0,20.0,62,0.00,,,0.00,,2013-01-09 22:12:00,
2013-01-09 17:23:00,41.0,29.0,30.24,WSW,252,7.0,20.0,62,0.00,,,0.00,,2013-01-09 22:23:00,
2013-01-09 17:33:00,39.0,28.0,30.27,West,263,6.0,17.0,65,0.00,,,0.00,,2013-01-09 22:33:00,
2013-01-09 17:43:00,39.0,28.0,30.27,West,263,6.0,17.0,65,0.00,,,0.00,,2013-01-09 22:43:00,
2013-01-09 17:53:00,39.0,28.0,30.27,West,263,6.0,17.0,65,0.00,,,0.00,,2013-01-09 22:53:00,
2013-01-09 18:03:00,39.0,29.0,30.28,WSW,252,5.0,23.0,67,0.00,,,0.00,,2013-01-09 23:03:00,
2013-01-09 18:13:00,39.0,29.0,30.28,WSW,252,5.0,23.0,67,0.00,,,0.00,,2013-01-09 23:13:00,
2013-01-09 18:23:00,39.0,29.0,30.28,WSW,252,5.0,23.0,67,0.00,,,0.00,,2013-01-09 23:23:00,
2013-01-09 18:33:00,38.0,29.0,30.30,NW,315,2.0,15.0,70,0.00,,,0.00,,2013-01-09 23:33:00,
2013-01-09 18:43:00,38.0,29.0,30.30,NW,315,2.0,15.0,70,0.00,,,0.00,,2013-01-09 23:43:00,
2013-01-09 18:53:00,38.0,29.0,30.30,NW,315,2.0,15.0,70,0.00,,,0.00,,2013-01-09 23:53:00,
2013-01-09 19:03:00,38.0,29.0,30.32,West,274,4.0,12.0,71,0.00,,,0.00,,2013-01-10 00:03:00,
2013-01-09 19:12:00,38.0,29.0,30.32,West,274,4.0,12.0,71,0.00,,,0.00,,2013-01-10 00:12:00,
2013-01-09 19:22:00,38.0,29.0,30.32,West,274,4.0,12.0,71,0.00,,,0.00,,2013-01-10 00:22:00,
2013-01-09 19:32:00,38.0,29.0,30.34,WNW,290,2.0,10.0,69,0.00,,,0.00,,2013-01-10 00:32:00,
2013-01-09 19:42:00,38.0,29.0,30.34,WNW,290,2.0,10.0,69,0.00,,,0.00,,2013-01-10 00:42:00,
2013-01-09 19:53:00,38.0,29.0,30.34,WNW,290,2.0,10.0,69,0.00,,,0.00,,2013-01-10 00:53:00,
2013-01-09 20:02:00,37.0,28.0,30.35,WSW,241,3.0,10.0,71,0.00,,,0.00,,2013-01-10 01:02:00,
2013-01-09 20:12:00,37.0,28.0,30.35,WSW,241,3.0,10.0,71,0.00,,,0.00,,2013-01-10 01:12:00,
2013-01-09 20:22:00,37.0,28.0,30.35,WSW,241,3.0,10.0,71,0.00,,,0.00,,2013-01-10 01:22:00,
2013-01-09 20:33:00,37.0,29.0,30.36,WNW,288,3.0,8.0,72,0.00,,,0.00,,2013-01-10 01:33:00,
2013-01-09 20:43:00,37.0,29.0,30.36,WNW,288,3.0,8.0,72,0.00,,,0.00,,2013-01-10 01:43:00,
2013-01-09 20:53:00,37.0,29.0,30.36,WNW,288,3.0,8.0,72,0.00,,,0.00,,2013-01-10 01:53:00,
2013-01-09 21:03:00,36.0,28.0,30.37,WNW,298,2.0,3.0,73,0.00,,,0.00,,2013-01-10 02:03:00,
2013-01-09 21:12:00,36.0,28.0,30.37,WNW,298,2.0,3.0,73,0.00,,,0.00,,2013-01-10 02:12:00,
2013-01-09 21:22:00,36.0,28.0,30.37,WNW,298,2.0,3.0,73,0.00,,,0.00,,2013-01-10 02:22:00,
2013-01-09 21:33:00,36.0,29.0,30.38,NW,311,2.0,5.0,75,0.00,,,0.00,,2013-01-10 02:33:00,
2013-01-09 21:42:00,36.0,29.0,30.38,NW,311,2.0,5.0,75,0.00,,,0.00,,2013-01-10 02:42:00,
2013-01-09 21:53:00,36.0,29.0,30.38,NW,311,2.0,5.0,75,0.00,,,0.00,,2013-01-10 02:53:00,
2013-01-09 22:03:00,35.0,28.0,30.38,NW,313,1.0,3.0,75,0.00,,,0.00,,2013-01-10 03:03:00,
2013-01-09 22:12:00,35.0,28.0,30.38,NW,313,1.0,3.0,75,0.00,,,0.00,,2013-01-10 03:12:00,
2013-01-09 22:22:00,35.0,28.0,30.38,NW,313,1.0,3.0,75,0.00,,,0.00,,2013-01-10 03:22:00,
2013-01-09 22:33:00,34.0,27.0,30.39,WNW,301,0.0,3.0,75,0.00,,,0.00,,2013-01-10 03:33:00,
2013-01-09 22:42:00,34.0,27.0,30.39,WNW,301,0.0,3.0,75,0.00,,,0.00,,2013-01-10 03:42:00,
2013-01-09 22:53:00,34.0,27.0,30.39,WNW,301,0.0,3.0,75,0.00,,,0.00,,2013-01-10 03:53:00,
2013-01-09 23:02:00,32.0,26.0,30.40,WNW,301,0.0,0.0,78,0.00,,,0.00,,2013-01-10 04:02:00,
2013-01-09 23:12:00,32.0,26.0,30.40,WNW,301,0.0,0.0,78,0.00,,,0.00,,2013-01-10 04:12:00,
2013-01-09 23:22:00,32.0,26.0,30.40,WNW,301,0.0,0.0,78,0.00,,,0.00,,2013-01-10 04:22:00,
2013-01-09 23:32:00,31.0,25.0,30.39,WNW,300,0.0,0.0,79,0.00,,,0.00,,2013-01-10 04:32:00,
2013-01-09 23:43:00,31.0,25.0,30.39,WNW,300,0.0,0.0,79,0.00,,,0.00,,2013-01-10 04:43:00,
2013-01-09 23:53:00,31.0,25.0,30.39,WNW,300,0.0,0.0,79,0.00,,,0.00,,2013-01-10 04:53:00,